SBUL/UDI METAR and TAF weather

Enter ICAO airport designator
Station Type Date Time Source
SBUL METAR 2019/06/17 15:00 UTC NOAA

SBUL 171500Z VRB07KT CAVOK 24/08 Q1025


Station Type Date Time Source
SBUL Decoded METAR 2019/06/17 15:00 UTC NOAA

Uberlandia , Brazil (SBUL) 18-53S 048-14W
Jun 17, 2019 - 11:00 AM EDT / 2019.06.17 1500 UTC
Wind: Variable at 8 MPH (7 KT):0
Visibility: greater than 7 mile(s):0
Temperature: 75 F (24 C)
Dew Point: 46 F (8 C)
Relative Humidity: 35%
Pressure (altimeter): 30.27 in. Hg (1025 hPa)
ob: SBUL 171500Z VRB07KT CAVOK 24/08 Q1025
cycle: 15

Station Type Date Time Source
SBUL TAF 2019/06/17 12:33 UTC NOAA

TAF SBUL 171002Z 1712/1724 09010KT CAVOK TN19/1712Z TX25/1718Z
BECMG 1713/1715 FEW028
BECMG 1716/1718 08005KT
BECMG 1718/1720 CAVOK
RMK PGM

Example: see airport list